»·PEaware :: N96792 KBFL-KMHV

N96792 :: KBFL-KMHV

FLIGHT INFORMATION

Flight Status: Arrived
Operator: Privately registered:
United States
More flights under this callsign
Pilot: Darren D. (33149)
Aircraft: CESSNA 172 SKYHAWK
(C172)
More flights by this aircraft type
Origin: KBFL Meadows
United States
Destination: KMHV Mojave
United States
More flights between these airports :: More routes between these airports
Route: TO
File this flight plan on PilotEdge
Remarks:
Altitude:
(Current/Filed)
9,500ft
Speed:
(Current/Filed)
105kts
Departed: 16-Jan-21 06:31 PM
Arrived: 16-Jan-21 07:08 PM
Distance/Time
Traveled:
50nm/0:37
Distance/Time
To Go:
Arrived

Flight Plot

Page will automatically refresh every two minutes.

Flight plan parsing failed; only flown route is shown


Map Options




Map Legend


Flown Route
Filed Route
Departure Airport
Arrival Airport
Navaid (VOR, NDB)
Fix

Horizontal Profiles

Position Reports

Time Latitude Longitude Heading Altitude Ground
Speed
16-Jan-21 18:16 35.429112 -119.046453 135 481ft 0kts
16-Jan-21 18:17 35.429112 -119.046453 135 481ft 0kts
16-Jan-21 18:18 35.429111 -119.046453 135 481ft 0kts
16-Jan-21 18:19 35.429111 -119.046453 135 481ft 0kts
16-Jan-21 18:20 35.429111 -119.046453 135 481ft 0kts
16-Jan-21 18:21 35.429111 -119.046453 135 481ft 0kts
16-Jan-21 18:22 35.429111 -119.046453 135 481ft 0kts
16-Jan-21 18:23 35.429111 -119.046453 135 481ft 0kts
16-Jan-21 18:24 35.429111 -119.046453 135 481ft 0kts
16-Jan-21 18:25 35.429111 -119.046453 135 481ft 0kts
16-Jan-21 18:26 35.429111 -119.046453 135 481ft 0kts
16-Jan-21 18:27 35.427957 -119.046795 133 478ft 21kts
16-Jan-21 18:28 35.425736 -119.044734 227 472ft 0kts
16-Jan-21 18:29 35.425735 -119.044734 227 472ft 0kts
16-Jan-21 18:30 35.426324 -119.047171 314 480ft 41kts
16-Jan-21 18:31 35.441761 -119.065864 319 1065ft 85kts
16-Jan-21 18:32 35.465164 -119.080902 20 1696ft 96kts
16-Jan-21 18:33 35.474013 -119.048953 86 2139ft 111kts
16-Jan-21 18:34 35.466127 -119.014236 146 2515ft 111kts
16-Jan-21 18:35 35.439782 -118.994724 151 3013ft 110kts
16-Jan-21 18:36 35.413563 -118.975551 150 3513ft 109kts
16-Jan-21 18:37 35.390614 -118.951680 125 4012ft 109kts
16-Jan-21 18:38 35.377119 -118.918817 118 4506ft 107kts
16-Jan-21 18:39 35.363752 -118.886390 116 5011ft 106kts
16-Jan-21 18:40 35.350831 -118.854586 111 5495ft 102kts
16-Jan-21 18:41 35.338075 -118.823847 111 6006ft 100kts
16-Jan-21 18:42 35.325501 -118.793196 109 6517ft 100kts
16-Jan-21 18:43 35.313033 -118.763022 113 7018ft 98kts
16-Jan-21 18:44 35.300752 -118.733003 115 7524ft 97kts
16-Jan-21 18:45 35.288546 -118.703403 116 8021ft 97kts
16-Jan-21 18:46 35.276455 -118.674172 122 8536ft 96kts
16-Jan-21 18:47 35.268237 -118.651478 120 8993ft 86kts
16-Jan-21 18:48 35.256790 -118.626266 111 9526ft 84kts
16-Jan-21 18:49 35.244148 -118.595781 114 9675ft 117kts
16-Jan-21 18:50 35.228645 -118.558399 120 9679ft 127kts
16-Jan-21 18:51 35.214916 -118.527200 102 9678ft 121kts
16-Jan-21 18:52 35.200132 -118.489588 113 9694ft 125kts
16-Jan-21 18:53 35.184580 -118.451807 114 9709ft 122kts
16-Jan-21 18:54 35.169173 -118.414567 114 9726ft 123kts
16-Jan-21 18:55 35.153434 -118.376690 114 9725ft 125kts
16-Jan-21 18:56 35.137538 -118.338494 114 9629ft 126kts
16-Jan-21 18:57 35.121187 -118.299317 114 8906ft 116kts
16-Jan-21 18:58 35.106417 -118.263835 115 7788ft 117kts
16-Jan-21 18:59 35.088221 -118.242500 226 7022ft 96kts
16-Jan-21 19:00 35.066433 -118.261811 160 6247ft 97kts
16-Jan-21 19:01 35.067351 -118.230903 55 5761ft 109kts
16-Jan-21 19:02 35.084874 -118.198124 43 4549ft 113kts
16-Jan-21 19:03 35.090635 -118.171900 157 3872ft 104kts
16-Jan-21 19:04 35.071159 -118.153145 88 3392ft 81kts
16-Jan-21 19:05 35.066942 -118.125514 133 3226ft 75kts
16-Jan-21 19:06 35.059174 -118.141640 277 2916ft 71kts
16-Jan-21 19:07 35.059210 -118.151851 266 2755ft 33kts
16-Jan-21 19:08 35.058264 -118.157728 181 2765ft 0kts
16-Jan-21 19:09 35.057052 -118.157779 232 2766ft 10kts

Navigation Log

Ident Type
Flight plan parsing failed, navigation log unavailable